Terminal Aerodrome Forecast
Issued by NWS

Home | Current Version | Previous Version | Text Only | Print | Product List | Glossary On
Versions: 1 2 3 4 5 6 7 8 9 10 11 12 13 14 15 16 17
244
FTUS46 KSTO 221736
TAFSMF
TAF
KSMF 221736Z 2218/2318 24006KT P6SM SCT025 SCT150
     FM222100 30005KT P6SM VCSH SCT030 BKN150
     FM222300 25007KT P6SM VCTS BKN040CB OVC100
      TEMPO 2223/2303 5SM -SHRA OVC040
     FM230400 25006KT P6SM BKN040
     FM231400 32003KT 3SM BCFG SCT040=

USA.gov is the U.S. government's official web portal to all federal, state and local government web resources and services.